createdAt,value
2023-05-19T00:02:28.164Z,100920.75
2023-05-19T00:05:45.608Z,100925.84
2023-05-19T00:09:16.080Z,100918.69
2023-05-19T00:12:28.737Z,100911.37
2023-05-19T00:15:41.501Z,100906.84
2023-05-19T00:18:54.450Z,100910.94
2023-05-19T00:22:06.884Z,100907.38
2023-05-19T00:25:19.628Z,100911.66
2023-05-19T00:28:31.999Z,100915.84
2023-05-19T00:31:45.000Z,100911.03
2023-05-19T00:34:57.413Z,100914.47
2023-05-19T00:38:10.110Z,100908.63
2023-05-19T00:41:22.849Z,100918.41
2023-05-19T00:44:37.999Z,100908.88
2023-05-19T00:47:50.444Z,100912.09
2023-05-19T00:51:04.700Z,100904.25
2023-05-19T00:54:17.394Z,100897.25
2023-05-19T00:57:30.139Z,100894.03
2023-05-19T01:00:43.427Z,100892.88
2023-05-19T01:03:59.189Z,100894.31
2023-05-19T01:07:12.599Z,100884.81
2023-05-19T01:10:25.455Z,100896.81
2023-05-19T01:13:40.347Z,100885.72
2023-05-19T01:17:08.195Z,100894.44
2023-05-19T01:20:27.311Z,100886.59
2023-05-19T01:24:09.203Z,100894.31
2023-05-19T01:27:38.921Z,100898.63
2023-05-19T01:30:55.663Z,100903.78
2023-05-19T01:34:08.147Z,100908.22
2023-05-19T01:37:20.786Z,100905.13
2023-05-19T01:40:33.494Z,100905.44
2023-05-19T01:43:46.590Z,100901.50
2023-05-19T01:46:59.132Z,100904.50
2023-05-19T01:50:11.861Z,100898.53
2023-05-19T01:53:24.619Z,100886.81
2023-05-19T01:57:04.377Z,100897.59
2023-05-19T02:01:01.479Z,100890.87
2023-05-19T02:04:39.910Z,100895.50
2023-05-19T02:08:06.560Z,100907.19
2023-05-19T02:11:46.260Z,100898.16
2023-05-19T02:15:15.941Z,100903.59
2023-05-19T02:18:29.998Z,100908.63
2023-05-19T02:21:42.715Z,100903.69
2023-05-19T02:24:56.568Z,100909.81
2023-05-19T02:28:09.862Z,100904.84
2023-05-19T02:31:22.298Z,100893.66
2023-05-19T02:34:34.986Z,100892.94
2023-05-19T02:37:49.982Z,100891.94
2023-05-19T02:41:02.765Z,100893.00
2023-05-19T02:44:15.380Z,100892.06
2023-05-19T02:47:28.120Z,100886.16
2023-05-19T02:50:40.618Z,100883.53
2023-05-19T02:53:53.360Z,100885.53
2023-05-19T02:57:06.835Z,100891.88
2023-05-19T03:00:20.151Z,100895.34
2023-05-19T03:03:32.971Z,100890.38
2023-05-19T03:06:46.737Z,100897.16
2023-05-19T03:09:59.170Z,100895.84
2023-05-19T03:13:11.924Z,100891.75
2023-05-19T03:16:24.759Z,100904.16
2023-05-19T03:19:37.606Z,100912.09
2023-05-19T03:22:50.167Z,100901.19
2023-05-19T03:26:03.148Z,100910.63
2023-05-19T03:29:16.533Z,100912.69
2023-05-19T03:32:29.725Z,100914.25
2023-05-19T03:35:42.271Z,100918.37
2023-05-19T03:38:55.052Z,100913.69
2023-05-19T03:42:07.576Z,100908.47
2023-05-19T03:45:21.187Z,100908.63
2023-05-19T03:48:34.714Z,100910.44
2023-05-19T03:51:49.004Z,100909.59
2023-05-19T03:55:01.936Z,100902.41
2023-05-19T03:58:15.017Z,100904.34
2023-05-19T04:01:27.462Z,100913.59
2023-05-19T04:04:40.225Z,100909.72
2023-05-19T04:07:52.640Z,100913.91
2023-05-19T04:11:05.388Z,100915.59
2023-05-19T04:14:17.842Z,100920.03
2023-05-19T04:17:30.683Z,100922.63
2023-05-19T04:20:43.178Z,100929.09
2023-05-19T04:23:55.865Z,100929.41
2023-05-19T04:27:12.032Z,100932.53
2023-05-19T04:30:25.507Z,100932.50
2023-05-19T04:33:38.988Z,100944.59
2023-05-19T04:36:53.333Z,100943.81
2023-05-19T04:40:09.425Z,100941.13
2023-05-19T04:43:22.353Z,100947.97
2023-05-19T04:46:36.251Z,100956.31
2023-05-19T04:49:49.326Z,100948.03
2023-05-19T04:53:01.701Z,100947.22
2023-05-19T04:56:15.655Z,100951.34
2023-05-19T04:59:29.260Z,100955.19
2023-05-19T05:02:42.954Z,100945.13
2023-05-19T05:05:56.771Z,100947.44
2023-05-19T05:09:10.536Z,100949.56
2023-05-19T05:12:23.330Z,100947.31
2023-05-19T05:15:36.422Z,100950.22
2023-05-19T05:18:50.767Z,100954.88
2023-05-19T05:22:04.474Z,100945.97
2023-05-19T05:25:17.870Z,100952.94
2023-05-19T05:28:31.491Z,100958.06
2023-05-19T05:31:44.094Z,100969.22
2023-05-19T05:34:56.887Z,100966.34
2023-05-19T05:38:11.840Z,100967.12
2023-05-19T05:41:28.118Z,100963.59
2023-05-19T05:44:41.269Z,100966.34
2023-05-19T05:47:54.945Z,100966.25
2023-05-19T05:51:09.339Z,100962.31
2023-05-19T05:54:22.724Z,100964.72
2023-05-19T05:57:36.627Z,100968.00
2023-05-19T06:00:51.537Z,100969.66
2023-05-19T06:04:04.552Z,100974.50
2023-05-19T06:07:17.458Z,100978.41
2023-05-19T06:10:30.803Z,100981.00
2023-05-19T06:13:44.405Z,100988.16
2023-05-19T06:16:58.675Z,100987.28
2023-05-19T06:20:13.068Z,100998.22
2023-05-19T06:23:29.183Z,101004.84
2023-05-19T06:26:41.662Z,101012.06
2023-05-19T06:29:55.841Z,101010.37
2023-05-19T06:33:08.393Z,101016.84
2023-05-19T06:36:21.124Z,101018.72
2023-05-19T06:39:35.594Z,101024.22
2023-05-19T06:42:49.028Z,101017.34
2023-05-19T06:46:01.984Z,101007.97
2023-05-19T06:49:15.069Z,101017.72
2023-05-19T06:52:28.374Z,101010.59
2023-05-19T06:55:54.387Z,101015.38
2023-05-19T06:59:11.371Z,101008.53
2023-05-19T07:02:24.280Z,101019.78
2023-05-19T07:05:36.707Z,101001.69
2023-05-19T07:08:50.370Z,101006.41
2023-05-19T07:12:03.734Z,101002.44
2023-05-19T07:15:16.557Z,101000.84
2023-05-19T07:18:31.972Z,101002.66
2023-05-19T07:21:44.884Z,101005.06
2023-05-19T07:24:57.471Z,101004.84
2023-05-19T07:28:10.269Z,100999.13
2023-05-19T07:31:22.775Z,101005.47
2023-05-19T07:34:35.716Z,101016.13
2023-05-19T07:37:48.985Z,101009.00
2023-05-19T07:41:02.357Z,101009.28
2023-05-19T07:44:15.079Z,101016.87
2023-05-19T07:47:27.825Z,101002.56
2023-05-19T07:50:40.290Z,101012.09
2023-05-19T07:53:53.372Z,101014.16
2023-05-19T07:57:06.083Z,101006.94
2023-05-19T08:00:18.957Z,100998.09
2023-05-19T08:03:32.112Z,100998.63
2023-05-19T08:06:44.733Z,101001.12
2023-05-19T08:09:58.658Z,100994.41
2023-05-19T08:13:11.065Z,100999.09
2023-05-19T08:16:27.026Z,101000.22
2023-05-19T08:19:39.499Z,100997.06
2023-05-19T08:22:52.211Z,101000.78
2023-05-19T08:26:05.289Z,101000.41
2023-05-19T08:29:17.995Z,100987.38
2023-05-19T08:32:31.522Z,100989.91
2023-05-19T08:35:44.273Z,100984.16
2023-05-19T08:38:56.672Z,100987.53
2023-05-19T08:42:10.050Z,100987.66
2023-05-19T08:45:23.280Z,100990.69
2023-05-19T08:48:36.000Z,100985.44
2023-05-19T08:52:10.045Z,100984.69
2023-05-19T08:56:04.256Z,100986.09
2023-05-19T08:59:16.675Z,100986.31
2023-05-19T09:02:29.511Z,100988.94
2023-05-19T09:05:42.030Z,100971.84
2023-05-19T09:08:57.049Z,100969.34
2023-05-19T09:12:12.812Z,100967.34
2023-05-19T09:15:27.413Z,100974.91
2023-05-19T09:18:42.642Z,100975.63
2023-05-19T09:22:03.429Z,100971.12
2023-05-19T09:25:25.561Z,100969.31
2023-05-19T09:28:39.515Z,100964.97
2023-05-19T09:32:00.512Z,100968.94
2023-05-19T09:35:13.794Z,100973.97
2023-05-19T09:38:29.465Z,100961.81
2023-05-19T09:41:42.461Z,100956.28
2023-05-19T09:45:04.111Z,100957.16
2023-05-19T09:48:16.956Z,100961.91
2023-05-19T09:51:29.623Z,100949.97
2023-05-19T09:54:42.333Z,100956.66
2023-05-19T09:57:57.788Z,100943.44
2023-05-19T10:01:10.492Z,100937.75
2023-05-19T10:04:27.098Z,100937.59
2023-05-19T10:07:40.571Z,100937.84
2023-05-19T10:10:53.279Z,100929.91
2023-05-19T10:14:05.829Z,100930.97
2023-05-19T10:17:18.541Z,100929.19
2023-05-19T10:20:31.121Z,100929.53
2023-05-19T10:23:43.976Z,100925.75
2023-05-19T10:27:05.613Z,100929.22
2023-05-19T10:30:21.062Z,100926.88
2023-05-19T10:34:07.812Z,100916.50
2023-05-19T10:37:29.089Z,100907.72
2023-05-19T10:41:04.119Z,100902.94
2023-05-19T10:44:21.431Z,100902.50
2023-05-19T10:47:35.039Z,100900.16
2023-05-19T10:50:47.961Z,100893.94
2023-05-19T10:54:06.293Z,100894.94
2023-05-19T10:57:19.004Z,100892.56
2023-05-19T11:00:31.915Z,100896.94
2023-05-19T11:03:49.181Z,100885.84
2023-05-19T11:07:02.138Z,100886.28
2023-05-19T11:10:15.025Z,100883.28
2023-05-19T11:16:45.915Z,100881.78
2023-05-19T11:19:59.445Z,100880.00
2023-05-19T11:23:15.869Z,100875.72
2023-05-19T11:26:46.400Z,100872.47
2023-05-19T11:30:05.435Z,100869.88
2023-05-19T11:33:20.711Z,100874.09
2023-05-19T11:36:34.013Z,100865.53
2023-05-19T11:39:47.093Z,100864.69
2023-05-19T11:43:01.850Z,100865.75
2023-05-19T11:46:17.539Z,100859.50
2023-05-19T11:49:32.174Z,100859.03
2023-05-19T11:52:45.052Z,100846.50
2023-05-19T11:55:58.132Z,100851.03
2023-05-19T11:59:10.904Z,100856.97
2023-05-19T12:02:27.782Z,100856.28
2023-05-19T12:05:45.872Z,100849.84
2023-05-19T12:08:59.278Z,100846.81
2023-05-19T12:12:17.108Z,100843.09
2023-05-19T12:15:29.634Z,100842.88
2023-05-19T12:18:42.471Z,100842.38
2023-05-19T12:21:55.111Z,100838.84
2023-05-19T12:25:08.102Z,100834.13
2023-05-19T12:28:20.838Z,100830.44
2023-05-19T12:31:34.478Z,100830.84
2023-05-19T12:34:47.527Z,100831.25
2023-05-19T12:38:04.819Z,100826.22
2023-05-19T12:41:17.327Z,100826.25
2023-05-19T12:44:31.495Z,100823.50
2023-05-19T12:47:48.382Z,100820.72
2023-05-19T12:51:01.181Z,100818.06
2023-05-19T12:54:13.688Z,100819.63
2023-05-19T12:57:27.074Z,100806.09
2023-05-19T13:00:44.989Z,100795.31
2023-05-19T13:03:58.005Z,100799.94
2023-05-19T13:07:10.630Z,100794.50
2023-05-19T13:10:23.541Z,100790.66
2023-05-19T13:13:36.057Z,100785.87
2023-05-19T13:16:48.902Z,100785.19
2023-05-19T13:20:01.385Z,100783.34
2023-05-19T13:23:14.296Z,100778.78
2023-05-19T13:26:26.791Z,100783.94
2023-05-19T13:29:39.473Z,100772.91
2023-05-19T13:32:52.798Z,100765.06
2023-05-19T13:36:07.642Z,100762.09
2023-05-19T13:39:20.028Z,100764.16
2023-05-19T13:42:33.456Z,100758.78
2023-05-19T13:45:46.035Z,100757.31
2023-05-19T13:48:58.783Z,100747.31
2023-05-19T13:52:11.655Z,100749.97
2023-05-19T13:55:26.285Z,100743.72
2023-05-19T13:58:38.740Z,100737.94
2023-05-19T14:01:51.566Z,100743.31
2023-05-19T14:05:04.881Z,100745.00
2023-05-19T14:08:17.432Z,100745.13
2023-05-19T14:11:30.137Z,100737.69
2023-05-19T14:14:42.597Z,100735.03
2023-05-19T14:17:55.348Z,100734.97
2023-05-19T14:21:08.345Z,100731.19
2023-05-19T14:24:21.051Z,100740.62
2023-05-19T14:27:33.446Z,100743.78
2023-05-19T14:30:46.284Z,100739.41
2023-05-19T14:33:58.645Z,100731.91
2023-05-19T14:37:14.336Z,100729.69
2023-05-19T14:40:26.815Z,100734.47
2023-05-19T14:43:42.142Z,100728.94
2023-05-19T14:46:54.610Z,100733.72
2023-05-19T14:50:07.488Z,100731.63
2023-05-19T14:53:23.020Z,100733.06
2023-05-19T14:56:35.777Z,100725.66
2023-05-19T14:59:48.245Z,100729.19
2023-05-19T15:03:02.046Z,100730.22
2023-05-19T15:06:19.071Z,100733.44
2023-05-19T15:09:31.830Z,100735.25
2023-05-19T15:12:44.286Z,100735.44
2023-05-19T15:16:12.561Z,100729.53
2023-05-19T15:19:29.156Z,100727.28
2023-05-19T15:22:41.935Z,100720.12
2023-05-19T15:25:54.767Z,100720.16
2023-05-19T15:29:07.459Z,100726.16
2023-05-19T15:32:20.254Z,100722.78
2023-05-19T15:35:32.947Z,100724.69
2023-05-19T15:38:45.478Z,100723.72
2023-05-19T15:41:58.158Z,100724.63
2023-05-19T15:45:10.674Z,100718.59
2023-05-19T15:48:28.789Z,100728.13
2023-05-19T15:51:41.262Z,100716.66
2023-05-19T15:54:55.234Z,100718.09
2023-05-19T15:58:08.908Z,100727.94
2023-05-19T16:01:21.746Z,100719.69
2023-05-19T16:04:36.562Z,100716.50
2023-05-19T16:07:49.011Z,100716.69
2023-05-19T16:11:01.708Z,100724.03
2023-05-19T16:14:14.688Z,100720.44
2023-05-19T16:17:28.763Z,100717.66
2023-05-19T16:20:41.226Z,100722.59
2023-05-19T16:23:53.918Z,100720.66
2023-05-19T16:27:06.316Z,100716.69
2023-05-19T16:30:19.067Z,100719.78
2023-05-19T16:33:31.444Z,100719.84
2023-05-19T16:36:44.133Z,100719.97
2023-05-19T16:39:56.590Z,100719.56
2023-05-19T16:43:09.373Z,100719.47
2023-05-19T16:46:21.914Z,100716.81
2023-05-19T16:49:37.834Z,100711.81
2023-05-19T16:52:50.967Z,100709.41
2023-05-19T16:56:03.858Z,100713.97
2023-05-19T16:59:17.272Z,100704.16
2023-05-19T17:02:30.055Z,100715.37
2023-05-19T17:05:43.489Z,100719.38
2023-05-19T17:08:56.245Z,100715.88
2023-05-19T17:12:09.054Z,100720.16
2023-05-19T17:15:21.768Z,100711.06
2023-05-19T17:18:36.673Z,100715.34
2023-05-19T17:21:49.547Z,100708.37
2023-05-19T17:25:01.978Z,100715.88
2023-05-19T17:28:15.997Z,100718.56
2023-05-19T17:31:28.418Z,100727.59
2023-05-19T17:34:41.904Z,100724.44
2023-05-19T17:37:54.381Z,100723.84
2023-05-19T17:41:10.473Z,100719.81
2023-05-19T17:44:25.697Z,100719.00
2023-05-19T17:47:40.828Z,100723.62
2023-05-19T17:50:53.252Z,100715.34
2023-05-19T17:54:09.060Z,100720.03
2023-05-19T17:57:21.438Z,100725.50
2023-05-19T18:00:34.494Z,100723.41
2023-05-19T18:03:49.805Z,100717.00
2023-05-19T18:07:06.042Z,100717.78
2023-05-19T18:10:21.200Z,100710.78
2023-05-19T18:13:33.668Z,100716.97
2023-05-19T18:16:47.433Z,100712.84
2023-05-19T18:19:59.929Z,100714.22
2023-05-19T18:23:12.597Z,100718.69
2023-05-19T18:26:24.956Z,100718.63
2023-05-19T18:29:37.749Z,100721.03
2023-05-19T18:32:50.216Z,100724.44
2023-05-19T18:36:02.954Z,100727.22
2023-05-19T18:39:15.404Z,100722.72
2023-05-19T18:42:28.114Z,100720.69
2023-05-19T18:45:40.571Z,100719.00
2023-05-19T18:48:53.326Z,100731.28
2023-05-19T18:52:05.956Z,100734.63
2023-05-19T18:55:18.649Z,100740.06
2023-05-19T18:58:31.137Z,100746.59
2023-05-19T19:01:43.922Z,100748.66
2023-05-19T19:04:56.518Z,100750.84
2023-05-19T19:08:09.220Z,100752.69
2023-05-19T19:11:22.500Z,100756.38
2023-05-19T19:14:35.169Z,100759.47
2023-05-19T19:17:47.601Z,100754.88
2023-05-19T19:21:02.576Z,100752.00
2023-05-19T19:24:15.301Z,100757.41
2023-05-19T19:27:31.122Z,100766.88
2023-05-19T19:30:44.482Z,100768.97
2023-05-19T19:33:58.999Z,100771.72
2023-05-19T19:37:11.502Z,100762.31
2023-05-19T19:40:25.085Z,100762.78
2023-05-19T19:43:37.533Z,100759.34
2023-05-19T19:46:50.608Z,100769.19
2023-05-19T19:50:05.766Z,100774.59
2023-05-19T19:53:18.491Z,100771.25
2023-05-19T19:56:30.929Z,100776.06
2023-05-19T19:59:43.785Z,100780.44
2023-05-19T20:03:04.983Z,100782.97
2023-05-19T20:06:18.480Z,100770.78
2023-05-19T20:09:31.108Z,100779.31
2023-05-19T20:12:43.808Z,100783.44
2023-05-19T20:15:56.302Z,100776.88
2023-05-19T20:19:09.418Z,100771.50
2023-05-19T20:22:23.248Z,100770.34
2023-05-19T20:25:53.703Z,100772.53
2023-05-19T20:29:11.260Z,100766.91
2023-05-19T20:32:24.019Z,100767.16
2023-05-19T20:35:36.469Z,100768.03
2023-05-19T20:38:49.134Z,100773.91
2023-05-19T20:42:01.569Z,100771.84
2023-05-19T20:45:14.269Z,100772.66
2023-05-19T20:48:26.826Z,100775.63
2023-05-19T20:51:39.516Z,100760.84
2023-05-19T20:54:51.950Z,100764.84
2023-05-19T20:58:04.628Z,100770.91
2023-05-19T21:01:17.291Z,100767.34
2023-05-19T21:04:30.185Z,100775.47
2023-05-19T21:07:42.652Z,100775.69
2023-05-19T21:10:55.622Z,100770.06
2023-05-19T21:14:08.273Z,100771.38
2023-05-19T21:17:21.314Z,100777.34
2023-05-19T21:20:33.833Z,100765.06
2023-05-19T21:23:46.806Z,100763.31
2023-05-19T21:26:59.193Z,100773.22
2023-05-19T21:30:12.930Z,100760.00
2023-05-19T21:33:25.514Z,100764.75
2023-05-19T21:36:38.177Z,100763.06
2023-05-19T21:39:50.778Z,100749.28
2023-05-19T21:43:03.691Z,100749.56
2023-05-19T21:46:16.079Z,100740.84
2023-05-19T21:49:28.825Z,100743.09
2023-05-19T21:52:41.393Z,100741.81
2023-05-19T21:55:54.118Z,100738.87
2023-05-19T21:59:07.014Z,100738.97
2023-05-19T22:02:19.711Z,100735.53
2023-05-19T22:05:35.106Z,100739.22
2023-05-19T22:08:47.544Z,100744.44
2023-05-19T22:12:00.224Z,100739.84
2023-05-19T22:15:13.569Z,100745.13
2023-05-19T22:18:26.290Z,100751.03
2023-05-19T22:21:38.709Z,100751.12
2023-05-19T22:24:51.418Z,100752.66
2023-05-19T22:28:05.690Z,100761.28
2023-05-19T22:31:18.471Z,100751.25
2023-05-19T22:34:30.940Z,100749.56
2023-05-19T22:37:43.668Z,100745.19
2023-05-19T22:40:56.045Z,100735.03
2023-05-19T22:44:10.403Z,100727.03
2023-05-19T22:47:22.953Z,100725.00
2023-05-19T22:50:35.632Z,100721.56
2023-05-19T22:53:48.984Z,100719.44
2023-05-19T22:57:01.784Z,100715.50
2023-05-19T23:00:14.404Z,100709.62
2023-05-19T23:03:27.080Z,100716.06
2023-05-19T23:06:39.473Z,100712.41
2023-05-19T23:09:52.159Z,100706.34
2023-05-19T23:13:04.864Z,100707.13
2023-05-19T23:16:17.552Z,100702.84
2023-05-19T23:19:31.956Z,100694.59
2023-05-19T23:22:44.701Z,100687.56
2023-05-19T23:25:57.094Z,100691.94
2023-05-19T23:29:13.314Z,100696.41
2023-05-19T23:32:25.959Z,100695.59
2023-05-19T23:35:39.656Z,100698.31
2023-05-19T23:38:52.072Z,100709.22
2023-05-19T23:42:05.762Z,100708.91
2023-05-19T23:45:18.265Z,100703.22
2023-05-19T23:48:31.352Z,100706.72
2023-05-19T23:51:43.792Z,100695.47
2023-05-19T23:54:56.489Z,100693.12
2023-05-19T23:58:08.911Z,100690.78
